createdAt,value
2018-11-23T00:00:27.196Z,80.57
2018-11-23T00:02:39.796Z,80.86
2018-11-23T00:04:52.042Z,80.89
2018-11-23T00:07:04.334Z,80.69
2018-11-23T00:09:16.524Z,82.44
2018-11-23T00:11:28.741Z,82.44
2018-11-23T00:13:40.966Z,82.25
2018-11-23T00:15:53.132Z,81.68
2018-11-23T00:18:05.362Z,80.71
2018-11-23T00:20:18.815Z,80.75
2018-11-23T00:22:31.018Z,81.13
2018-11-23T00:24:43.225Z,80.93
2018-11-23T00:26:55.402Z,81.02
2018-11-23T00:29:07.580Z,81.19
2018-11-23T00:31:19.750Z,81.01
2018-11-23T00:33:32.041Z,81.11
2018-11-23T00:35:44.175Z,81.27
2018-11-23T00:37:56.443Z,81.44
2018-11-23T00:40:10.742Z,81.60
2018-11-23T00:42:22.943Z,81.60
2018-11-23T00:44:35.206Z,81.39
2018-11-23T00:46:47.406Z,81.24
2018-11-23T00:48:59.682Z,81.09
2018-11-23T00:51:11.876Z,81.11
2018-11-23T00:53:24.091Z,81.21
2018-11-23T00:55:36.278Z,81.12
2018-11-23T00:57:48.539Z,81.14
2018-11-23T01:00:00.745Z,80.89
2018-11-23T01:02:12.967Z,80.87
2018-11-23T01:04:25.168Z,80.71
2018-11-23T01:06:37.347Z,81.26
2018-11-23T01:08:49.520Z,81.19
2018-11-23T01:11:01.723Z,81.15
2018-11-23T01:13:13.958Z,81.36
2018-11-23T01:15:26.184Z,81.22
2018-11-23T01:17:38.366Z,81.32
2018-11-23T01:19:50.580Z,81.49
2018-11-23T01:22:02.799Z,81.29
2018-11-23T01:24:15.012Z,81.29
2018-11-23T01:26:27.239Z,81.33
2018-11-23T01:28:39.439Z,81.50
2018-11-23T01:30:51.604Z,81.78
2018-11-23T01:33:03.804Z,81.64
2018-11-23T01:35:16.037Z,81.62
2018-11-23T01:37:28.286Z,81.22
2018-11-23T01:39:40.486Z,81.36
2018-11-23T01:41:52.633Z,81.26
2018-11-23T01:44:04.862Z,81.16
2018-11-23T01:46:17.040Z,80.57
2018-11-23T01:48:29.222Z,80.78
2018-11-23T01:50:41.388Z,80.94
2018-11-23T01:52:53.623Z,80.95
2018-11-23T01:55:07.241Z,81.13
2018-11-23T01:57:19.420Z,80.90
2018-11-23T01:59:31.682Z,81.10
2018-11-23T02:01:43.884Z,81.12
2018-11-23T02:03:56.178Z,81.08
2018-11-23T02:06:08.389Z,81.24
2018-11-23T02:08:20.580Z,81.19
2018-11-23T02:10:32.803Z,80.84
2018-11-23T02:12:45.017Z,81.08
2018-11-23T02:14:57.247Z,81.25
2018-11-23T02:17:09.427Z,81.33
2018-11-23T02:19:21.643Z,81.24
2018-11-23T02:21:33.853Z,81.15
2018-11-23T02:23:46.067Z,80.86
2018-11-23T02:25:58.291Z,80.17
2018-11-23T02:28:10.467Z,80.44
2018-11-23T02:30:24.044Z,80.17
2018-11-23T02:32:36.288Z,80.34
2018-11-23T02:34:48.481Z,80.33
2018-11-23T02:37:00.683Z,80.27
2018-11-23T02:39:12.852Z,80.27
2018-11-23T02:41:25.040Z,80.42
2018-11-23T02:43:37.334Z,80.21
2018-11-23T02:45:49.504Z,80.34
2018-11-23T02:48:01.654Z,80.46
2018-11-23T02:50:13.877Z,80.77
2018-11-23T02:52:26.074Z,80.78
2018-11-23T02:54:38.243Z,81.08
2018-11-23T02:56:50.427Z,81.07
2018-11-23T02:59:02.601Z,81.30
2018-11-23T03:01:14.814Z,81.09
2018-11-23T03:03:27.002Z,80.97
2018-11-23T03:05:39.180Z,81.66
2018-11-23T03:07:51.392Z,81.72
2018-11-23T03:10:03.767Z,82.18
2018-11-23T03:12:15.978Z,82.37
2018-11-23T03:14:28.158Z,82.22
2018-11-23T03:16:40.335Z,82.09
2018-11-23T03:18:53.003Z,82.27
2018-11-23T03:21:05.190Z,82.05
2018-11-23T03:23:17.403Z,81.67
2018-11-23T03:25:29.560Z,81.52
2018-11-23T03:27:41.759Z,81.50
2018-11-23T03:29:53.946Z,81.23
2018-11-23T03:32:06.200Z,81.43
2018-11-23T03:34:18.432Z,81.29
2018-11-23T03:36:30.661Z,81.50
2018-11-23T03:38:42.885Z,81.37
2018-11-23T03:40:55.140Z,81.64
2018-11-23T03:43:07.314Z,81.28
2018-11-23T03:45:19.499Z,81.28
2018-11-23T03:47:31.719Z,81.26
2018-11-23T03:49:43.908Z,80.91
2018-11-23T03:51:56.103Z,81.17
2018-11-23T03:54:08.255Z,81.12
2018-11-23T03:56:20.508Z,81.10
2018-11-23T03:58:32.691Z,81.39
2018-11-23T04:00:44.892Z,81.05
2018-11-23T04:02:57.062Z,81.20
2018-11-23T04:05:09.293Z,80.99
2018-11-23T04:07:21.483Z,80.81
2018-11-23T04:09:33.724Z,80.80
2018-11-23T04:11:45.925Z,80.67
2018-11-23T04:13:58.153Z,80.43
2018-11-23T04:16:10.315Z,80.29
2018-11-23T04:18:22.519Z,80.10
2018-11-23T04:20:34.709Z,80.12
2018-11-23T04:22:46.883Z,80.10
2018-11-23T04:24:59.023Z,80.04
2018-11-23T04:27:11.260Z,80.35
2018-11-23T04:29:23.446Z,80.47
2018-11-23T04:31:35.640Z,80.62
2018-11-23T04:33:47.831Z,80.80
2018-11-23T04:36:00.025Z,80.26
2018-11-23T04:38:12.212Z,80.13
2018-11-23T04:40:24.385Z,80.22
2018-11-23T04:42:36.555Z,80.38
2018-11-23T04:44:48.715Z,80.67
2018-11-23T04:47:00.910Z,80.50
2018-11-23T04:49:13.080Z,80.77
2018-11-23T04:51:25.370Z,80.54
2018-11-23T04:53:37.570Z,80.45
2018-11-23T04:55:49.743Z,80.41
2018-11-23T04:58:01.935Z,80.24
2018-11-23T05:00:15.459Z,80.15
2018-11-23T05:02:27.645Z,80.28
2018-11-23T05:04:39.859Z,80.03
2018-11-23T05:06:52.039Z,79.82
2018-11-23T05:09:06.860Z,79.91
2018-11-23T05:11:19.068Z,79.82
2018-11-23T05:13:31.274Z,79.79
2018-11-23T05:15:43.464Z,79.78
2018-11-23T05:17:55.701Z,79.66
2018-11-23T05:20:08.767Z,79.72
2018-11-23T05:22:21.057Z,79.67
2018-11-23T05:24:33.364Z,79.77
2018-11-23T05:26:45.829Z,79.70
2018-11-23T05:28:58.054Z,79.64
2018-11-23T05:31:10.246Z,80.02
2018-11-23T05:33:22.458Z,80.30
2018-11-23T05:35:34.615Z,80.32
2018-11-23T05:37:46.767Z,80.63
2018-11-23T05:39:59.000Z,80.82
2018-11-23T05:42:11.199Z,80.61
2018-11-23T05:44:23.457Z,80.60
2018-11-23T05:46:35.635Z,80.63
2018-11-23T05:48:47.891Z,80.57
2018-11-23T05:51:00.108Z,80.53
2018-11-23T05:53:12.268Z,80.76
2018-11-23T05:55:24.483Z,80.87
2018-11-23T05:57:36.778Z,81.01
2018-11-23T05:59:49.015Z,81.19
2018-11-23T06:02:01.231Z,81.38
2018-11-23T06:04:13.404Z,81.34
2018-11-23T06:06:25.995Z,81.48
2018-11-23T06:08:37.841Z,81.40
2018-11-23T06:10:50.093Z,81.46
2018-11-23T06:13:02.268Z,81.21
2018-11-23T06:15:16.891Z,81.20
2018-11-23T06:17:29.068Z,80.99
2018-11-23T06:19:41.282Z,80.87
2018-11-23T06:21:53.494Z,80.96
2018-11-23T06:24:06.012Z,81.09
2018-11-23T06:26:22.352Z,81.18
2018-11-23T06:28:34.563Z,81.41
2018-11-23T06:30:46.797Z,81.57
2018-11-23T06:33:10.607Z,81.58
2018-11-23T06:35:22.888Z,81.40
2018-11-23T06:37:35.072Z,81.43
2018-11-23T06:39:47.291Z,81.51
2018-11-23T06:41:59.476Z,81.58
2018-11-23T06:44:11.732Z,81.55
2018-11-23T06:46:23.937Z,81.41
2018-11-23T06:48:36.186Z,80.87
2018-11-23T06:50:48.392Z,80.48
2018-11-23T06:53:00.563Z,80.58
2018-11-23T06:55:12.783Z,80.66
2018-11-23T06:57:24.985Z,80.77
2018-11-23T06:59:37.273Z,80.96
2018-11-23T07:01:49.500Z,80.80
2018-11-23T07:04:01.747Z,80.92
2018-11-23T07:06:14.079Z,80.75
2018-11-23T07:08:26.327Z,80.74
2018-11-23T07:10:38.516Z,80.82
2018-11-23T07:12:50.772Z,80.80
2018-11-23T07:15:03.075Z,80.85
2018-11-23T07:17:15.360Z,80.62
2018-11-23T07:19:27.648Z,80.25
2018-11-23T07:21:39.855Z,80.29
2018-11-23T07:23:52.035Z,80.07
2018-11-23T07:26:04.312Z,79.84
2018-11-23T07:28:16.550Z,79.76
2018-11-23T07:30:29.211Z,79.75
2018-11-23T07:32:41.487Z,80.06
2018-11-23T07:34:53.717Z,80.28
2018-11-23T07:37:05.918Z,80.35
2018-11-23T07:39:29.589Z,80.58
2018-11-23T07:41:53.265Z,80.42
2018-11-23T07:44:05.508Z,80.80
2018-11-23T07:46:17.703Z,81.00
2018-11-23T07:48:29.889Z,80.85
2018-11-23T07:50:42.080Z,80.81
2018-11-23T07:52:54.265Z,80.81
2018-11-23T07:55:08.232Z,81.10
2018-11-23T07:57:20.407Z,81.58
2018-11-23T07:59:33.797Z,81.60
2018-11-23T08:01:46.064Z,82.71
2018-11-23T08:04:00.018Z,82.47
2018-11-23T08:06:12.216Z,81.79
2018-11-23T08:08:24.459Z,80.70
2018-11-23T08:10:36.257Z,78.50
2018-11-23T08:12:49.643Z,77.50
2018-11-23T08:15:01.898Z,76.71
2018-11-23T08:17:14.136Z,74.51
2018-11-23T08:19:26.435Z,73.90
2018-11-23T08:21:38.631Z,72.34
2018-11-23T08:23:50.867Z,71.92
2018-11-23T08:26:03.120Z,72.75
2018-11-23T08:28:15.276Z,72.08
2018-11-23T08:30:28.783Z,70.48
2018-11-23T08:32:40.989Z,71.03
2018-11-23T08:34:53.188Z,71.02
2018-11-23T08:37:05.449Z,69.69
2018-11-23T08:39:17.664Z,69.78
2018-11-23T08:41:29.938Z,68.75
2018-11-23T08:43:42.093Z,68.85
2018-11-23T08:45:54.299Z,68.66
2018-11-23T08:48:06.499Z,68.05
2018-11-23T08:50:21.343Z,67.90
2018-11-23T08:52:33.531Z,67.07
2018-11-23T08:54:45.727Z,66.61
2018-11-23T08:56:57.946Z,65.67
2018-11-23T08:59:10.154Z,65.92
2018-11-23T09:01:22.394Z,65.42
2018-11-23T09:03:34.631Z,65.36
2018-11-23T09:05:46.837Z,65.39
2018-11-23T09:07:59.046Z,65.58
2018-11-23T09:10:13.592Z,66.48
2018-11-23T09:12:25.943Z,65.48
2018-11-23T09:14:38.168Z,65.94
2018-11-23T09:16:50.342Z,65.87
2018-11-23T09:19:02.619Z,64.20
2018-11-23T09:21:14.780Z,65.34
2018-11-23T09:23:26.999Z,63.98
2018-11-23T09:25:39.187Z,64.26
2018-11-23T09:27:51.427Z,64.03
2018-11-23T09:30:05.892Z,63.92
2018-11-23T09:32:18.324Z,64.50
2018-11-23T09:34:30.643Z,64.73
2018-11-23T09:36:42.842Z,64.56
2018-11-23T09:38:55.188Z,64.90
2018-11-23T09:41:07.416Z,63.93
2018-11-23T09:43:19.603Z,64.52
2018-11-23T09:45:32.566Z,64.10
2018-11-23T09:47:45.772Z,63.20
2018-11-23T09:49:58.008Z,63.89
2018-11-23T09:52:10.200Z,63.65
2018-11-23T09:54:22.408Z,63.41
2018-11-23T09:56:34.659Z,64.22
2018-11-23T09:58:46.901Z,64.01
2018-11-23T10:00:59.080Z,63.96
2018-11-23T10:03:11.287Z,64.74
2018-11-23T10:05:24.150Z,63.95
2018-11-23T10:07:36.353Z,63.78
2018-11-23T10:09:48.526Z,63.48
2018-11-23T10:12:00.931Z,63.29
2018-11-23T10:14:13.028Z,62.97
2018-11-23T10:16:25.225Z,63.34
2018-11-23T10:18:37.427Z,62.56
2018-11-23T10:20:49.639Z,63.26
2018-11-23T10:23:01.876Z,61.60
2018-11-23T10:25:15.589Z,62.58
2018-11-23T10:27:27.829Z,62.17
2018-11-23T10:29:40.029Z,62.59
2018-11-23T10:31:52.320Z,62.65
2018-11-23T10:34:04.624Z,62.06
2018-11-23T10:36:16.845Z,62.02
2018-11-23T10:38:29.127Z,61.33
2018-11-23T10:40:41.332Z,61.30
2018-11-23T10:42:53.565Z,61.75
2018-11-23T10:45:08.952Z,61.54
2018-11-23T10:47:21.200Z,61.27
2018-11-23T10:49:33.460Z,60.26
2018-11-23T10:51:45.654Z,61.45
2018-11-23T10:53:57.872Z,61.15
2018-11-23T10:56:10.068Z,61.81
2018-11-23T10:58:23.068Z,60.47
2018-11-23T11:00:40.960Z,61.02
2018-11-23T11:02:59.666Z,60.21
2018-11-23T11:05:17.601Z,61.00
2018-11-23T11:07:29.815Z,60.44
2018-11-23T11:09:42.060Z,60.36
2018-11-23T11:11:54.419Z,60.27
2018-11-23T11:14:07.158Z,60.76
2018-11-23T11:16:19.393Z,60.58
2018-11-23T11:18:31.642Z,60.10
2018-11-23T11:20:43.835Z,60.60
2018-11-23T11:22:56.044Z,61.04
2018-11-23T11:25:09.229Z,60.02
2018-11-23T11:27:21.428Z,60.78
2018-11-23T11:29:33.716Z,60.62
2018-11-23T11:31:45.923Z,61.45
2018-11-23T11:33:58.179Z,61.21
2018-11-23T11:36:10.446Z,61.53
2018-11-23T11:38:22.687Z,61.66
2018-11-23T11:40:34.939Z,61.03
2018-11-23T11:42:47.129Z,60.58
2018-11-23T11:44:59.359Z,61.27
2018-11-23T11:47:11.615Z,61.65
2018-11-23T11:49:23.865Z,61.20
2018-11-23T11:51:36.047Z,61.14
2018-11-23T11:53:48.319Z,60.32
2018-11-23T11:56:00.491Z,61.04
2018-11-23T11:58:12.683Z,61.57
2018-11-23T12:00:25.656Z,61.77
2018-11-23T12:02:37.888Z,60.65
2018-11-23T12:04:50.084Z,61.51
2018-11-23T12:07:02.334Z,61.62
2018-11-23T12:09:14.556Z,60.23
2018-11-23T12:11:26.801Z,61.21
2018-11-23T12:13:38.994Z,61.08
2018-11-23T12:15:51.207Z,61.73
2018-11-23T12:18:03.480Z,60.49
2018-11-23T12:20:17.017Z,60.78
2018-11-23T12:22:29.218Z,61.40
2018-11-23T12:24:41.447Z,60.85
2018-11-23T12:26:53.634Z,61.66
2018-11-23T12:29:05.898Z,61.71
2018-11-23T12:31:18.213Z,60.53
2018-11-23T12:33:30.448Z,61.16
2018-11-23T12:35:42.696Z,61.62
2018-11-23T12:37:54.927Z,62.05
2018-11-23T12:40:08.882Z,61.21
2018-11-23T12:42:21.236Z,61.06
2018-11-23T12:44:33.458Z,60.88
2018-11-23T12:46:45.651Z,60.53
2018-11-23T12:48:57.832Z,60.52
2018-11-23T12:51:10.089Z,60.78
2018-11-23T12:53:22.352Z,60.50
2018-11-23T12:55:34.589Z,60.11
2018-11-23T12:57:46.879Z,60.20
2018-11-23T12:59:59.097Z,61.07
2018-11-23T13:02:11.308Z,60.92
2018-11-23T13:04:23.528Z,60.72
2018-11-23T13:06:35.730Z,60.40
2018-11-23T13:08:48.002Z,60.17
2018-11-23T13:11:00.249Z,60.84
2018-11-23T13:13:12.480Z,60.77
2018-11-23T13:15:24.781Z,60.67
2018-11-23T13:17:36.948Z,60.65
2018-11-23T13:19:49.187Z,60.86
2018-11-23T13:22:01.464Z,60.99
2018-11-23T13:24:13.739Z,61.64
2018-11-23T13:26:25.992Z,61.73
2018-11-23T13:28:38.154Z,61.92
2018-11-23T13:30:50.379Z,61.15
2018-11-23T13:33:02.577Z,61.91
2018-11-23T13:35:16.048Z,61.59
2018-11-23T13:37:28.319Z,61.72
2018-11-23T13:39:40.569Z,62.21
2018-11-23T13:41:52.781Z,62.37
2018-11-23T13:44:05.096Z,61.83
2018-11-23T13:46:17.323Z,61.91
2018-11-23T13:48:29.577Z,62.25
2018-11-23T13:50:41.814Z,62.58
2018-11-23T13:52:55.650Z,62.36
2018-11-23T13:55:07.995Z,62.32
2018-11-23T13:57:20.254Z,62.93
2018-11-23T13:59:32.625Z,63.13
2018-11-23T14:01:44.837Z,63.17
2018-11-23T14:03:57.054Z,62.55
2018-11-23T14:06:09.328Z,63.34
2018-11-23T14:08:21.546Z,63.70
2018-11-23T14:10:33.767Z,62.44
2018-11-23T14:12:46.264Z,63.18
2018-11-23T14:14:58.530Z,63.64
2018-11-23T14:17:10.803Z,62.67
2018-11-23T14:19:22.998Z,63.39
2018-11-23T14:21:35.196Z,62.55
2018-11-23T14:23:47.409Z,63.07
2018-11-23T14:25:59.609Z,62.90
2018-11-23T14:28:11.866Z,62.77
2018-11-23T14:30:29.576Z,63.26
2018-11-23T14:32:41.861Z,63.67
2018-11-23T14:34:54.092Z,63.58
2018-11-23T14:37:06.298Z,62.91
2018-11-23T14:39:18.518Z,63.06
2018-11-23T14:41:30.696Z,62.85
2018-11-23T14:43:42.913Z,63.03
2018-11-23T14:45:55.120Z,63.86
2018-11-23T14:48:07.919Z,63.80
2018-11-23T14:50:22.523Z,64.14
2018-11-23T14:52:34.781Z,64.06
2018-11-23T14:54:47.024Z,64.08
2018-11-23T14:56:59.187Z,63.95
2018-11-23T14:59:11.431Z,63.68
2018-11-23T15:01:24.031Z,64.75
2018-11-23T15:03:36.219Z,65.03
2018-11-23T15:05:48.444Z,64.28
2018-11-23T15:08:00.964Z,64.78
2018-11-23T15:10:14.500Z,64.57
2018-11-23T15:12:26.751Z,64.54
2018-11-23T15:14:39.023Z,64.65
2018-11-23T15:16:51.253Z,65.00
2018-11-23T15:19:03.889Z,65.75
2018-11-23T15:21:16.106Z,65.52
2018-11-23T15:23:28.294Z,65.95
2018-11-23T15:25:40.559Z,68.37
2018-11-23T15:27:52.879Z,65.45
2018-11-23T15:30:15.637Z,65.77
2018-11-23T15:32:27.944Z,65.79
2018-11-23T15:34:40.192Z,65.37
2018-11-23T15:36:52.403Z,66.22
2018-11-23T15:39:08.280Z,66.88
2018-11-23T15:41:20.517Z,67.22
2018-11-23T15:43:32.793Z,67.68
2018-11-23T15:45:45.075Z,67.77
2018-11-23T15:47:57.875Z,68.01
2018-11-23T15:50:14.596Z,68.11
2018-11-23T15:52:26.803Z,67.75
2018-11-23T15:54:39.069Z,67.23
2018-11-23T15:56:51.280Z,67.27
2018-11-23T16:01:27.997Z,66.57
2018-11-23T16:03:40.211Z,66.15
2018-11-23T16:05:52.506Z,67.83
2018-11-23T16:08:06.415Z,67.44
2018-11-23T16:10:21.153Z,67.37
2018-11-23T16:12:33.418Z,67.97
2018-11-23T16:14:45.682Z,68.51
2018-11-23T16:16:57.955Z,68.76
2018-11-23T16:19:10.228Z,68.96
2018-11-23T16:21:22.482Z,70.01
2018-11-23T16:23:34.727Z,70.44
2018-11-23T16:25:47.515Z,69.97
2018-11-23T16:28:01.117Z,70.29
2018-11-23T16:30:15.727Z,70.57
2018-11-23T16:32:28.050Z,70.88
2018-11-23T16:34:40.303Z,70.36
2018-11-23T16:36:52.592Z,71.01
2018-11-23T16:39:08.146Z,71.11
2018-11-23T16:41:20.424Z,70.36
2018-11-23T16:43:32.733Z,71.45
2018-11-23T16:45:45.528Z,71.31
2018-11-23T16:47:58.881Z,71.46
2018-11-23T16:50:11.527Z,71.07
2018-11-23T16:52:23.814Z,71.29
2018-11-23T16:54:36.052Z,71.37
2018-11-23T16:56:48.390Z,71.47
2018-11-23T16:59:00.618Z,72.12
2018-11-23T17:01:12.887Z,72.43
2018-11-23T17:03:25.144Z,71.36
2018-11-23T17:05:38.832Z,72.00
2018-11-23T17:07:51.160Z,71.24
2018-11-23T17:10:03.549Z,72.14
2018-11-23T17:12:15.796Z,71.92
2018-11-23T17:14:28.252Z,71.82
2018-11-23T17:16:40.464Z,72.63
2018-11-23T17:18:52.762Z,72.24
2018-11-23T17:21:05.145Z,72.81
2018-11-23T17:23:17.426Z,72.97
2018-11-23T17:25:30.183Z,72.99
2018-11-23T17:27:42.786Z,72.88
2018-11-23T17:29:55.035Z,72.00
2018-11-23T17:32:07.292Z,72.57
2018-11-23T17:34:19.523Z,73.12
2018-11-23T17:36:31.778Z,73.12
2018-11-23T17:38:47.693Z,72.32
2018-11-23T17:40:56.281Z,72.85
2018-11-23T17:43:08.858Z,72.15
2018-11-23T17:45:22.743Z,72.09
2018-11-23T17:47:34.964Z,72.04
2018-11-23T17:49:47.165Z,72.69
2018-11-23T17:51:59.372Z,72.20
2018-11-23T17:54:11.590Z,72.67
2018-11-23T17:56:23.843Z,72.67
2018-11-23T17:58:36.115Z,72.69
2018-11-23T18:00:48.402Z,73.13
2018-11-23T18:03:01.708Z,73.31
2018-11-23T18:05:14.925Z,72.69
2018-11-23T18:07:27.159Z,73.58
2018-11-23T18:09:39.384Z,73.01
2018-11-23T18:11:51.673Z,73.72
2018-11-23T18:14:03.980Z,73.99
2018-11-23T18:16:16.295Z,73.52
2018-11-23T18:18:28.543Z,73.24
2018-11-23T18:20:40.780Z,73.31
2018-11-23T18:22:53.801Z,73.54
2018-11-23T18:25:08.315Z,74.52
2018-11-23T18:27:20.577Z,74.98
2018-11-23T18:29:32.814Z,74.75
2018-11-23T18:31:45.111Z,74.70
2018-11-23T18:33:57.338Z,74.22
2018-11-23T18:36:09.534Z,74.56
2018-11-23T18:38:21.779Z,74.11
2018-11-23T18:40:37.575Z,74.61
2018-11-23T18:42:46.381Z,74.74
2018-11-23T18:44:58.666Z,74.78
2018-11-23T18:47:10.990Z,74.68
2018-11-23T18:49:23.249Z,75.36
2018-11-23T18:51:35.511Z,74.83
2018-11-23T18:53:47.713Z,75.01
2018-11-23T18:55:59.955Z,74.93
2018-11-23T18:58:12.214Z,75.55
2018-11-23T19:00:24.444Z,74.91
2018-11-23T19:02:36.698Z,75.33
2018-11-23T19:04:48.937Z,75.28
2018-11-23T19:07:01.214Z,74.89
2018-11-23T19:09:13.464Z,75.50
2018-11-23T19:11:25.687Z,75.47
2018-11-23T19:13:37.933Z,74.65
2018-11-23T19:15:50.120Z,74.49
2018-11-23T19:18:02.398Z,74.36
2018-11-23T19:20:17.721Z,74.46
2018-11-23T19:22:29.989Z,75.07
2018-11-23T19:24:42.280Z,75.01
2018-11-23T19:26:54.506Z,75.08
2018-11-23T19:29:06.804Z,74.65
2018-11-23T19:31:19.132Z,75.42
2018-11-23T19:33:31.442Z,74.60
2018-11-23T19:35:43.656Z,74.60
2018-11-23T19:37:55.948Z,74.89
2018-11-23T19:40:11.248Z,75.20
2018-11-23T19:42:23.524Z,75.48
2018-11-23T19:44:35.780Z,75.73
2018-11-23T19:46:48.047Z,75.40
2018-11-23T19:49:00.350Z,75.81
2018-11-23T19:51:12.656Z,75.36
2018-11-23T19:53:24.977Z,75.38
2018-11-23T19:55:37.260Z,75.48
2018-11-23T19:57:49.545Z,75.87
2018-11-23T20:00:01.867Z,75.81
2018-11-23T20:02:14.216Z,75.05
2018-11-23T20:04:26.502Z,75.40
2018-11-23T20:06:42.841Z,75.26
2018-11-23T20:08:51.119Z,75.49
2018-11-23T20:11:03.512Z,75.68
2018-11-23T20:13:15.856Z,75.12
2018-11-23T20:15:28.128Z,75.78
2018-11-23T20:17:41.409Z,75.00
2018-11-23T20:19:52.806Z,75.03
2018-11-23T20:22:05.178Z,75.91
2018-11-23T20:24:17.500Z,74.90
2018-11-23T20:26:29.845Z,75.92
2018-11-23T20:28:42.081Z,75.20
2018-11-23T20:30:54.356Z,75.52
2018-11-23T20:33:06.652Z,75.28
2018-11-23T20:35:19.988Z,75.61
2018-11-23T20:37:32.225Z,75.26
2018-11-23T20:39:44.499Z,75.38
2018-11-23T20:41:56.772Z,75.44
2018-11-23T20:44:09.068Z,76.32
2018-11-23T20:46:21.390Z,76.27
2018-11-23T20:48:33.727Z,76.52
2018-11-23T20:50:46.038Z,76.12
2018-11-23T20:52:58.356Z,76.77
2018-11-23T20:55:11.876Z,76.55
2018-11-23T20:57:24.191Z,76.61
2018-11-23T20:59:38.808Z,76.25
2018-11-23T21:01:48.761Z,76.57
2018-11-23T21:04:01.015Z,76.49
2018-11-23T21:06:13.317Z,76.10
2018-11-23T21:08:25.659Z,77.13
2018-11-23T21:10:37.897Z,77.14
2018-11-23T21:12:50.204Z,76.44
2018-11-23T21:15:02.460Z,76.92
2018-11-23T21:17:14.735Z,76.67
2018-11-23T21:19:27.107Z,76.66
2018-11-23T21:21:39.375Z,77.06
2018-11-23T21:23:51.749Z,76.84
2018-11-23T21:26:04.514Z,76.36
2018-11-23T21:28:16.767Z,76.82
2018-11-23T21:30:28.976Z,76.26
2018-11-23T21:32:41.261Z,76.37
2018-11-23T21:34:53.511Z,76.48
2018-11-23T21:37:05.929Z,77.18
2018-11-23T21:39:18.166Z,77.24
2018-11-23T21:41:30.385Z,76.88
2018-11-23T21:43:42.686Z,77.05
2018-11-23T21:45:54.898Z,77.10
2018-11-23T21:48:07.176Z,77.78
2018-11-23T21:50:25.190Z,76.91
2018-11-23T21:52:32.524Z,77.68
2018-11-23T21:54:44.767Z,77.17
2018-11-23T21:56:57.025Z,77.95
2018-11-23T21:59:09.239Z,77.33
2018-11-23T22:01:21.447Z,77.97
2018-11-23T22:03:33.712Z,77.44
2018-11-23T22:05:46.006Z,78.25
2018-11-23T22:07:58.286Z,77.38
2018-11-23T22:10:13.251Z,77.51
2018-11-23T22:12:25.485Z,77.75
2018-11-23T22:14:37.716Z,77.69
2018-11-23T22:16:49.968Z,77.89
2018-11-23T22:19:02.187Z,78.73
2018-11-23T22:21:14.415Z,78.57
2018-11-23T22:23:26.679Z,79.00
2018-11-23T22:25:38.930Z,78.46
2018-11-23T22:27:51.188Z,78.37
2018-11-23T22:30:09.387Z,78.84
2018-11-23T22:32:21.684Z,78.68
2018-11-23T22:34:34.586Z,78.82
2018-11-23T22:36:46.822Z,78.05
2018-11-23T22:38:59.031Z,78.64
2018-11-23T22:41:11.235Z,78.73
2018-11-23T22:43:23.420Z,78.66
2018-11-23T22:45:35.607Z,78.18
2018-11-23T22:47:47.832Z,78.95
2018-11-23T22:50:00.128Z,79.13
2018-11-23T22:52:12.404Z,78.71
2018-11-23T22:54:24.587Z,79.51
2018-11-23T22:56:36.811Z,79.72
2018-11-23T22:58:51.512Z,78.67
2018-11-23T23:01:02.422Z,78.66
2018-11-23T23:03:14.707Z,78.82
2018-11-23T23:05:26.948Z,78.69
2018-11-23T23:07:39.168Z,78.56
2018-11-23T23:09:51.392Z,78.10
2018-11-23T23:12:03.688Z,79.08
2018-11-23T23:14:15.921Z,78.78
2018-11-23T23:16:28.091Z,78.90
2018-11-23T23:18:40.354Z,78.41
2018-11-23T23:20:52.559Z,78.85
2018-11-23T23:23:04.955Z,79.23
2018-11-23T23:25:17.296Z,79.08
2018-11-23T23:27:29.598Z,78.79
2018-11-23T23:29:41.788Z,78.05
2018-11-23T23:31:54.309Z,78.39
2018-11-23T23:34:06.520Z,78.87
2018-11-23T23:36:18.725Z,78.53
2018-11-23T23:38:30.916Z,78.07
2018-11-23T23:40:43.106Z,78.47
2018-11-23T23:42:55.315Z,77.35
2018-11-23T23:45:09.714Z,77.52
2018-11-23T23:47:21.924Z,77.85
2018-11-23T23:49:34.160Z,77.05
2018-11-23T23:51:46.374Z,78.09
2018-11-23T23:53:58.577Z,78.02
2018-11-23T23:56:10.851Z,77.08
2018-11-23T23:58:23.081Z,76.70
